sensor_id;sensor_type;location;lat;lon;timestamp;pressure;altitude;pressure_sealevel;temperature;humidity
38912;BME280;28444;48.056;14.408;2023-03-04T00:00:15;97892.81;;;2.32;89.99
38912;BME280;28444;48.056;14.408;2023-03-04T00:02:42;97898.97;;;2.32;89.61
38912;BME280;28444;48.056;14.408;2023-03-04T00:05:10;97890.34;;;2.39;89.59
38912;BME280;28444;48.056;14.408;2023-03-04T00:07:36;97896.22;;;2.44;88.76
38912;BME280;28444;48.056;14.408;2023-03-04T00:10:04;97892.03;;;2.42;88.63
38912;BME280;28444;48.056;14.408;2023-03-04T00:12:31;97882.28;;;2.28;89.04
38912;BME280;28444;48.056;14.408;2023-03-04T00:14:58;97884.03;;;2.26;90.16
38912;BME280;28444;48.056;14.408;2023-03-04T00:17:25;97883.56;;;2.22;89.87
38912;BME280;28444;48.056;14.408;2023-03-04T00:19:51;97892.63;;;2.24;89.83
38912;BME280;28444;48.056;14.408;2023-03-04T00:22:18;97893.13;;;2.23;89.35
38912;BME280;28444;48.056;14.408;2023-03-04T00:24:44;97894.09;;;2.25;89.44
38912;BME280;28444;48.056;14.408;2023-03-04T00:27:11;97896.00;;;2.36;88.83
38912;BME280;28444;48.056;14.408;2023-03-04T00:29:38;97896.22;;;2.44;88.09
38912;BME280;28444;48.056;14.408;2023-03-04T00:32:04;97905.84;;;2.28;88.77
38912;BME280;28444;48.056;14.408;2023-03-04T00:34:31;97896.28;;;2.27;88.67
38912;BME280;28444;48.056;14.408;2023-03-04T00:36:58;97908.59;;;2.16;88.99
38912;BME280;28444;48.056;14.408;2023-03-04T00:39:27;97898.06;;;2.13;89.90
38912;BME280;28444;48.056;14.408;2023-03-04T00:41:54;97900.03;;;2.07;90.32
38912;BME280;28444;48.056;14.408;2023-03-04T00:44:21;97892.97;;;2.04;89.59
38912;BME280;28444;48.056;14.408;2023-03-04T00:46:47;97892.47;;;2.00;90.42
38912;BME280;28444;48.056;14.408;2023-03-04T00:49:14;97885.38;;;1.91;90.52
38912;BME280;28444;48.056;14.408;2023-03-04T00:51:41;97880.50;;;1.84;90.25
38912;BME280;28444;48.056;14.408;2023-03-04T00:54:07;97886.38;;;1.88;90.84
38912;BME280;28444;48.056;14.408;2023-03-04T00:56:34;97881.69;;;1.88;90.46
38912;BME280;28444;48.056;14.408;2023-03-04T00:59:00;97884.41;;;1.88;91.06
38912;BME280;28444;48.056;14.408;2023-03-04T01:01:27;97888.06;;;1.91;90.02
38912;BME280;28444;48.056;14.408;2023-03-04T01:03:54;97878.28;;;1.93;89.83
38912;BME280;28444;48.056;14.408;2023-03-04T01:06:21;97876.81;;;1.92;90.68
38912;BME280;28444;48.056;14.408;2023-03-04T01:08:47;97870.69;;;1.86;89.96
38912;BME280;28444;48.056;14.408;2023-03-04T01:11:14;97869.94;;;1.91;90.01
38912;BME280;28444;48.056;14.408;2023-03-04T01:13:41;97872.63;;;1.91;89.71
38912;BME280;28444;48.056;14.408;2023-03-04T01:16:07;97876.78;;;1.98;89.28
38912;BME280;28444;48.056;14.408;2023-03-04T01:18:36;97862.06;;;1.99;89.09
38912;BME280;28444;48.056;14.408;2023-03-04T01:21:03;97868.44;;;2.02;89.28
38912;BME280;28444;48.056;14.408;2023-03-04T01:23:29;97865.28;;;1.86;89.76
38912;BME280;28444;48.056;14.408;2023-03-04T01:25:56;97856.22;;;1.84;90.01
38912;BME280;28444;48.056;14.408;2023-03-04T01:28:23;97859.69;;;1.73;90.31
38912;BME280;28444;48.056;14.408;2023-03-04T01:30:49;97853.06;;;1.80;90.19
38912;BME280;28444;48.056;14.408;2023-03-04T01:33:16;97859.69;;;1.79;90.47
38912;BME280;28444;48.056;14.408;2023-03-04T01:35:43;97862.84;;;1.77;90.59
38912;BME280;28444;48.056;14.408;2023-03-04T01:38:10;97858.22;;;1.72;90.65
38912;BME280;28444;48.056;14.408;2023-03-04T01:40:38;97854.78;;;1.77;90.91
38912;BME280;28444;48.056;14.408;2023-03-04T01:43:05;97852.31;;;1.74;90.63
38912;BME280;28444;48.056;14.408;2023-03-04T01:45:34;97853.06;;;1.80;90.04
38912;BME280;28444;48.056;14.408;2023-03-04T01:48:02;97849.88;;;1.76;90.16
38912;BME280;28444;48.056;14.408;2023-03-04T01:50:32;97853.09;;;1.68;90.29
38912;BME280;28444;48.056;14.408;2023-03-04T01:53:00;97848.72;;;1.60;91.24
38912;BME280;28444;48.056;14.408;2023-03-04T01:55:27;97844.28;;;1.57;91.19
38912;BME280;28444;48.056;14.408;2023-03-04T01:57:55;97845.00;;;1.63;90.99
38912;BME280;28444;48.056;14.408;2023-03-04T02:00:28;97842.34;;;1.57;90.68
38912;BME280;28444;48.056;14.408;2023-03-04T02:03:16;97836.94;;;1.57;91.17
38912;BME280;28444;48.056;14.408;2023-03-04T02:05:49;97835.69;;;1.58;91.59
38912;BME280;28444;48.056;14.408;2023-03-04T02:08:20;97842.34;;;1.57;90.69
38912;BME280;28444;48.056;14.408;2023-03-04T02:10:47;97843.31;;;1.60;90.63
38912;BME280;28444;48.056;14.408;2023-03-04T02:13:15;97829.09;;;1.54;90.77
38912;BME280;28444;48.056;14.408;2023-03-04T02:15:43;97832.53;;;1.49;90.94
38912;BME280;28444;48.056;14.408;2023-03-04T02:18:19;97834.25;;;1.52;91.46
38912;BME280;28444;48.056;14.408;2023-03-04T02:20:55;97829.31;;;1.56;90.43
38912;BME280;28444;48.056;14.408;2023-03-04T02:26:38;97833.47;;;1.68;89.96
38912;BME280;28444;48.056;14.408;2023-03-04T02:29:13;97836.44;;;1.64;90.01
38912;BME280;28444;48.056;14.408;2023-03-04T02:31:43;97832.78;;;1.56;90.09
38912;BME280;28444;48.056;14.408;2023-03-04T02:34:22;97817.66;;;1.31;91.00
38912;BME280;28444;48.056;14.408;2023-03-04T02:36:51;97819.59;;;1.36;91.01
38912;BME280;28444;48.056;14.408;2023-03-04T02:40:00;97823.50;;;1.29;91.17
38912;BME280;28444;48.056;14.408;2023-03-04T02:42:19;97820.81;;;1.35;91.37
38912;BME280;28444;48.056;14.408;2023-03-04T02:44:46;97816.44;;;1.20;91.84
38912;BME280;28444;48.056;14.408;2023-03-04T02:47:16;97813.72;;;1.26;91.02
38912;BME280;28444;48.056;14.408;2023-03-04T02:49:44;97816.66;;;1.23;91.16
38912;BME280;28444;48.056;14.408;2023-03-04T02:52:23;97807.38;;;1.24;91.96
38912;BME280;28444;48.056;14.408;2023-03-04T02:54:50;97809.81;;;1.22;92.08
38912;BME280;28444;48.056;14.408;2023-03-04T02:57:17;97809.06;;;1.21;92.10
38912;BME280;28444;48.056;14.408;2023-03-04T02:59:44;97804.41;;;1.16;91.62
38912;BME280;28444;48.056;14.408;2023-03-04T03:02:11;97795.59;;;1.15;92.15
38912;BME280;28444;48.056;14.408;2023-03-04T03:04:39;97795.38;;;1.13;91.61
38912;BME280;28444;48.056;14.408;2023-03-04T03:07:07;97797.09;;;1.16;91.46
38912;BME280;28444;48.056;14.408;2023-03-04T03:09:33;97792.91;;;1.15;91.19
38912;BME280;28444;48.056;14.408;2023-03-04T03:12:00;97793.88;;;1.12;91.53
38912;BME280;28444;48.056;14.408;2023-03-04T03:14:27;97796.59;;;1.18;91.88
38912;BME280;28444;48.056;14.408;2023-03-04T03:16:54;97791.94;;;1.18;90.80
38912;BME280;28444;48.056;14.408;2023-03-04T03:19:20;97799.75;;;1.22;91.04
38912;BME280;28444;48.056;14.408;2023-03-04T03:21:47;97800.50;;;1.23;91.45
38912;BME280;28444;48.056;14.408;2023-03-04T03:24:14;97794.63;;;1.18;91.87
38912;BME280;28444;48.056;14.408;2023-03-04T03:26:40;97800.00;;;1.24;91.55
38912;BME280;28444;48.056;14.408;2023-03-04T03:29:07;97787.28;;;1.19;91.80
38912;BME280;28444;48.056;14.408;2023-03-04T03:31:34;97794.88;;;1.04;93.08
38912;BME280;28444;48.056;14.408;2023-03-04T03:34:00;97788.03;;;1.03;94.24
38912;BME280;28444;48.056;14.408;2023-03-04T03:36:27;97783.63;;;1.00;94.35
38912;BME280;28444;48.056;14.408;2023-03-04T03:38:54;97789.75;;;1.06;93.43
38912;BME280;28444;48.056;14.408;2023-03-04T03:41:20;97785.81;;;1.01;93.84
38912;BME280;28444;48.056;14.408;2023-03-04T03:43:47;97786.56;;;1.07;93.33
38912;BME280;28444;48.056;14.408;2023-03-04T03:46:14;97778.22;;;1.11;92.84
38912;BME280;28444;48.056;14.408;2023-03-04T03:48:40;97783.84;;;1.18;93.11
38912;BME280;28444;48.056;14.408;2023-03-04T03:51:07;97779.91;;;1.19;92.49
38912;BME280;28444;48.056;14.408;2023-03-04T03:53:34;97779.69;;;1.17;93.29
38912;BME280;28444;48.056;14.408;2023-03-04T03:56:00;97774.28;;;1.23;92.92
38912;BME280;28444;48.056;14.408;2023-03-04T03:58:27;97782.06;;;1.43;91.23
38912;BME280;28444;48.056;14.408;2023-03-04T04:00:54;97778.91;;;1.39;91.88
38912;BME280;28444;48.056;14.408;2023-03-04T04:03:23;97780.13;;;1.38;91.28
38912;BME280;28444;48.056;14.408;2023-03-04T04:05:50;97774.50;;;1.42;90.97
38912;BME280;28444;48.056;14.408;2023-03-04T04:08:17;97780.13;;;1.33;91.59
38912;BME280;28444;48.056;14.408;2023-03-04T04:10:44;97781.81;;;1.53;91.45
38912;BME280;28444;48.056;14.408;2023-03-04T04:13:11;97775.97;;;1.43;91.32
38912;BME280;28444;48.056;14.408;2023-03-04T04:15:38;97781.34;;;1.37;91.43
38912;BME280;28444;48.056;14.408;2023-03-04T04:18:05;97782.59;;;1.36;91.18
38912;BME280;28444;48.056;14.408;2023-03-04T04:20:33;97785.03;;;1.46;90.28
38912;BME280;28444;48.056;14.408;2023-03-04T04:23:00;97781.31;;;1.49;90.63
38912;BME280;28444;48.056;14.408;2023-03-04T04:25:27;97783.53;;;1.50;90.58
38912;BME280;28444;48.056;14.408;2023-03-04T04:27:54;97772.50;;;1.48;90.57
38912;BME280;28444;48.056;14.408;2023-03-04T04:30:20;97776.22;;;1.39;90.97
38912;BME280;28444;48.056;14.408;2023-03-04T04:32:47;97775.22;;;1.37;90.73
38912;BME280;28444;48.056;14.408;2023-03-04T04:35:14;97776.22;;;1.34;90.73
38912;BME280;28444;48.056;14.408;2023-03-04T04:37:40;97772.78;;;1.33;91.56
38912;BME280;28444;48.056;14.408;2023-03-04T04:40:08;97778.41;;;1.41;90.93
38912;BME280;28444;48.056;14.408;2023-03-04T04:42:35;97774.75;;;1.38;90.44
38912;BME280;28444;48.056;14.408;2023-03-04T04:45:02;97776.22;;;1.34;90.07
38912;BME280;28444;48.056;14.408;2023-03-04T04:47:29;97777.94;;;1.37;90.15
38912;BME280;28444;48.056;14.408;2023-03-04T04:49:55;97776.44;;;1.41;90.49
38912;BME280;28444;48.056;14.408;2023-03-04T04:52:22;97776.47;;;1.36;90.69
38912;BME280;28444;48.056;14.408;2023-03-04T04:54:49;97780.88;;;1.33;90.17
38912;BME280;28444;48.056;14.408;2023-03-04T04:57:15;97779.16;;;1.36;90.18
38912;BME280;28444;48.056;14.408;2023-03-04T04:59:42;97781.34;;;1.43;90.28
38912;BME280;28444;48.056;14.408;2023-03-04T05:02:09;97783.81;;;1.35;89.70
38912;BME280;28444;48.056;14.408;2023-03-04T05:04:35;97781.84;;;1.36;90.11
38912;BME280;28444;48.056;14.408;2023-03-04T05:07:02;97779.41;;;1.32;91.34
38912;BME280;28444;48.056;14.408;2023-03-04T05:09:29;97773.78;;;1.30;91.99
38912;BME280;28444;48.056;14.408;2023-03-04T05:11:55;97778.19;;;1.33;92.54
38912;BME280;28444;48.056;14.408;2023-03-04T05:14:22;97786.75;;;1.43;91.01
38912;BME280;28444;48.056;14.408;2023-03-04T05:16:49;97780.41;;;1.35;91.25
38912;BME280;28444;48.056;14.408;2023-03-04T05:19:19;97780.63;;;1.42;91.96
38912;BME280;28444;48.056;14.408;2023-03-04T05:21:46;97779.38;;;1.43;91.07
38912;BME280;28444;48.056;14.408;2023-03-04T05:24:12;97784.78;;;1.38;92.05
38912;BME280;28444;48.056;14.408;2023-03-04T05:26:40;97780.88;;;1.33;91.63
38912;BME280;28444;48.056;14.408;2023-03-04T05:29:07;97780.41;;;1.35;91.85
38912;BME280;28444;48.056;14.408;2023-03-04T05:31:33;97780.38;;;1.40;91.09
38912;BME280;28444;48.056;14.408;2023-03-04T05:34:00;97780.66;;;1.31;91.49
38912;BME280;28444;48.056;14.408;2023-03-04T05:36:27;97776.47;;;1.30;92.10
38912;BME280;28444;48.056;14.408;2023-03-04T05:38:54;97780.41;;;1.29;92.02
38912;BME280;28444;48.056;14.408;2023-03-04T05:41:21;97774.03;;;1.27;92.60
38912;BME280;28444;48.056;14.408;2023-03-04T05:43:49;97776.00;;;1.26;91.18
38912;BME280;28444;48.056;14.408;2023-03-04T05:46:17;97790.19;;;1.27;91.28
38912;BME280;28444;48.056;14.408;2023-03-04T05:48:44;97792.16;;;1.32;91.57
38912;BME280;28444;48.056;14.408;2023-03-04T05:51:11;97797.53;;;1.37;91.13
38912;BME280;28444;48.056;14.408;2023-03-04T05:53:38;97792.34;;;1.45;91.00
38912;BME280;28444;48.056;14.408;2023-03-04T05:56:07;97796.78;;;1.37;91.61
38912;BME280;28444;48.056;14.408;2023-03-04T05:58:34;97798.78;;;1.31;91.24
38912;BME280;28444;48.056;14.408;2023-03-04T06:01:02;97806.59;;;1.40;91.99
38912;BME280;28444;48.056;14.408;2023-03-04T06:03:29;97807.81;;;1.39;91.92
38912;BME280;28444;48.056;14.408;2023-03-04T06:05:55;97802.66;;;1.41;91.76
38912;BME280;28444;48.056;14.408;2023-03-04T06:08:22;97821.03;;;1.48;92.26
38912;BME280;28444;48.056;14.408;2023-03-04T06:10:52;97818.31;;;1.48;92.34
38912;BME280;28444;48.056;14.408;2023-03-04T06:13:19;97815.13;;;1.55;93.00
38912;BME280;28444;48.056;14.408;2023-03-04T06:15:46;97823.94;;;1.61;91.91
38912;BME280;28444;48.056;14.408;2023-03-04T06:18:13;97827.41;;;1.56;93.14
38912;BME280;28444;48.056;14.408;2023-03-04T06:20:40;97824.91;;;1.64;93.24
38912;BME280;28444;48.056;14.408;2023-03-04T06:23:06;97828.81;;;1.68;92.09
38912;BME280;28444;48.056;14.408;2023-03-04T06:25:33;97828.81;;;1.68;93.03
38912;BME280;28444;48.056;14.408;2023-03-04T06:28:00;97835.94;;;1.72;92.53
38912;BME280;28444;48.056;14.408;2023-03-04T06:30:27;97832.72;;;1.73;92.80
38912;BME280;28444;48.056;14.408;2023-03-04T06:32:53;97837.13;;;1.76;92.76
38912;BME280;28444;48.056;14.408;2023-03-04T06:35:20;97838.63;;;1.72;92.55
38912;BME280;28444;48.056;14.408;2023-03-04T06:37:47;97842.53;;;1.71;92.99
38912;BME280;28444;48.056;14.408;2023-03-04T06:40:14;97843.97;;;1.83;93.21
38912;BME280;28444;48.056;14.408;2023-03-04T06:42:41;97840.97;;;1.92;92.91
38912;BME280;28444;48.056;14.408;2023-03-04T06:45:09;97844.19;;;1.90;92.05
38912;BME280;28444;48.056;14.408;2023-03-04T06:47:36;97847.88;;;1.93;92.91
38912;BME280;28444;48.056;14.408;2023-03-04T06:50:03;97849.06;;;1.92;93.45
38912;BME280;28444;48.056;14.408;2023-03-04T06:52:30;97848.59;;;1.88;93.98
38912;BME280;28444;48.056;14.408;2023-03-04T06:54:56;97847.66;;;1.80;95.16
38912;BME280;28444;48.056;14.408;2023-03-04T06:57:23;97854.00;;;1.88;95.10
38912;BME280;28444;48.056;14.408;2023-03-04T06:59:50;97856.94;;;1.84;95.56
38912;BME280;28444;48.056;14.408;2023-03-04T07:02:16;97858.66;;;1.93;95.01
38912;BME280;28444;48.056;14.408;2023-03-04T07:04:43;97851.03;;;1.97;94.63
38912;BME280;28444;48.056;14.408;2023-03-04T07:07:10;97852.97;;;2.08;94.91
38912;BME280;28444;48.056;14.408;2023-03-04T07:09:37;97858.53;;;2.21;94.54
38912;BME280;28444;48.056;14.408;2023-03-04T07:12:04;97863.84;;;2.38;93.30
38912;BME280;28444;48.056;14.408;2023-03-04T07:14:30;97869.16;;;2.55;93.32
38912;BME280;28444;48.056;14.408;2023-03-04T07:16:57;97868.38;;;2.65;92.72
38912;BME280;28444;48.056;14.408;2023-03-04T07:19:24;97866.78;;;2.81;92.39
38912;BME280;28444;48.056;14.408;2023-03-04T07:21:50;97870.41;;;2.89;91.88
38912;BME280;28444;48.056;14.408;2023-03-04T07:24:17;97868.84;;;3.05;90.98
38912;BME280;28444;48.056;14.408;2023-03-04T07:26:44;97872.66;;;3.16;90.65
38912;BME280;28444;48.056;14.408;2023-03-04T07:29:11;97871.91;;;3.21;90.77
38912;BME280;28444;48.056;14.408;2023-03-04T07:31:38;97870.16;;;3.23;90.41
38912;BME280;28444;48.056;14.408;2023-03-04T07:34:06;97869.81;;;3.32;90.02
38912;BME280;28444;48.056;14.408;2023-03-04T07:36:36;97871.28;;;3.33;89.87
38912;BME280;28444;48.056;14.408;2023-03-04T07:39:04;97868.47;;;3.45;90.26
38912;BME280;28444;48.056;14.408;2023-03-04T07:41:30;97870.63;;;3.52;90.03
38912;BME280;28444;48.056;14.408;2023-03-04T07:44:02;97866.34;;;3.62;89.54
38912;BME280;28444;48.056;14.408;2023-03-04T07:46:29;97873.13;;;3.50;89.34
38912;BME280;28444;48.056;14.408;2023-03-04T07:48:56;97880.72;;;3.51;89.29
38912;BME280;28444;48.056;14.408;2023-03-04T07:51:24;97867.91;;;3.52;89.77
38912;BME280;28444;48.056;14.408;2023-03-04T07:53:54;97868.44;;;3.50;89.82
38912;BME280;28444;48.056;14.408;2023-03-04T07:56:23;97872.84;;;3.53;89.41
38912;BME280;28444;48.056;14.408;2023-03-04T07:58:51;97879.16;;;3.61;89.71
38912;BME280;28444;48.056;14.408;2023-03-04T08:01:24;97882.69;;;3.51;89.48
38912;BME280;28444;48.056;14.408;2023-03-04T08:03:51;97863.38;;;3.66;89.38
38912;BME280;28444;48.056;14.408;2023-03-04T08:06:19;97872.63;;;3.76;89.36
38912;BME280;28444;48.056;14.408;2023-03-04T08:08:46;97876.50;;;3.80;89.51
38912;BME280;28444;48.056;14.408;2023-03-04T08:11:19;97870.09;;;4.02;88.20
38912;BME280;28444;48.056;14.408;2023-03-04T08:13:46;97877.50;;;4.21;87.56
38912;BME280;28444;48.056;14.408;2023-03-04T08:16:17;97869.31;;;4.26;87.42
38912;BME280;28444;48.056;14.408;2023-03-04T08:18:46;97869.63;;;4.23;86.70
38912;BME280;28444;48.056;14.408;2023-03-04T08:21:15;97865.47;;;4.22;85.86
38912;BME280;28444;48.056;14.408;2023-03-04T08:23:44;97873.28;;;4.44;85.12
38912;BME280;28444;48.056;14.408;2023-03-04T08:26:22;97870.34;;;4.42;84.24
38912;BME280;28444;48.056;14.408;2023-03-04T08:28:50;97870.34;;;4.42;83.98
38912;BME280;28444;48.056;14.408;2023-03-04T08:31:17;97864.00;;;4.40;84.45
38912;BME280;28444;48.056;14.408;2023-03-04T08:33:45;97864.22;;;4.42;83.93
38912;BME280;28444;48.056;14.408;2023-03-04T08:36:13;97875.31;;;4.38;83.28
38912;BME280;28444;48.056;14.408;2023-03-04T08:38:40;97878.63;;;4.50;83.05
38912;BME280;28444;48.056;14.408;2023-03-04T08:41:07;97870.00;;;4.51;82.68
38912;BME280;28444;48.056;14.408;2023-03-04T08:43:34;97866.84;;;4.47;81.54
38912;BME280;28444;48.056;14.408;2023-03-04T08:46:00;97867.22;;;4.38;82.02
38912;BME280;28444;48.056;14.408;2023-03-04T08:48:27;97870.06;;;4.46;80.71
38912;BME280;28444;48.056;14.408;2023-03-04T08:50:54;97871.59;;;4.41;81.44
38912;BME280;28444;48.056;14.408;2023-03-04T08:53:21;97873.72;;;4.48;81.75
38912;BME280;28444;48.056;14.408;2023-03-04T08:55:50;97885.13;;;4.60;79.08
38912;BME280;28444;48.056;14.408;2023-03-04T08:58:17;97871.09;;;4.62;77.59
38912;BME280;28444;48.056;14.408;2023-03-04T09:00:46;97867.19;;;4.76;77.53
38912;BME280;28444;48.056;14.408;2023-03-04T09:03:17;97861.75;;;4.95;77.87
38912;BME280;28444;48.056;14.408;2023-03-04T09:05:47;97861.63;;;5.00;77.24
38912;BME280;28444;48.056;14.408;2023-03-04T09:08:15;97868.84;;;4.98;76.53
38912;BME280;28444;48.056;14.408;2023-03-04T09:10:42;97871.44;;;5.03;76.68
38912;BME280;28444;48.056;14.408;2023-03-04T09:13:10;97862.34;;;5.20;76.98
38912;BME280;28444;48.056;14.408;2023-03-04T09:15:37;97865.25;;;5.22;76.30
38912;BME280;28444;48.056;14.408;2023-03-04T09:18:09;97856.25;;;5.14;74.79
38912;BME280;28444;48.056;14.408;2023-03-04T09:20:36;97864.69;;;5.10;75.08
38912;BME280;28444;48.056;14.408;2023-03-04T09:23:02;97851.19;;;4.91;74.04
38912;BME280;28444;48.056;14.408;2023-03-04T09:25:29;97861.97;;;4.78;74.51
38912;BME280;28444;48.056;14.408;2023-03-04T09:27:56;97859.22;;;4.65;75.12
38912;BME280;28444;48.056;14.408;2023-03-04T09:30:22;97862.38;;;4.69;76.36
38912;BME280;28444;48.056;14.408;2023-03-04T09:32:49;97857.28;;;4.78;76.45
38912;BME280;28444;48.056;14.408;2023-03-04T09:35:16;97860.09;;;4.73;75.80
38912;BME280;28444;48.056;14.408;2023-03-04T09:37:43;97854.06;;;4.80;74.97
38912;BME280;28444;48.056;14.408;2023-03-04T09:40:17;97847.53;;;4.89;74.93
38912;BME280;28444;48.056;14.408;2023-03-04T09:42:49;97846.03;;;5.06;74.14
38912;BME280;28444;48.056;14.408;2023-03-04T09:45:20;97838.75;;;5.15;75.33
38912;BME280;28444;48.056;14.408;2023-03-04T09:47:49;97836.38;;;5.24;74.12
38912;BME280;28444;48.056;14.408;2023-03-04T09:50:19;97844.19;;;5.28;71.97
38912;BME280;28444;48.056;14.408;2023-03-04T09:55:41;97834.63;;;5.53;70.86
38912;BME280;28444;48.056;14.408;2023-03-04T09:59:14;97826.16;;;5.44;70.07
38912;BME280;28444;48.056;14.408;2023-03-04T10:06:53;97828.28;;;5.64;68.21
38912;BME280;28444;48.056;14.408;2023-03-04T10:09:26;97828.66;;;5.55;68.83
38912;BME280;28444;48.056;14.408;2023-03-04T10:12:09;97827.63;;;5.58;68.73
38912;BME280;28444;48.056;14.408;2023-03-04T10:15:01;97830.25;;;5.64;68.69
38912;BME280;28444;48.056;14.408;2023-03-04T10:17:37;97827.53;;;5.77;69.57
38912;BME280;28444;48.056;14.408;2023-03-04T10:20:54;97823.78;;;5.93;68.30
38912;BME280;28444;48.056;14.408;2023-03-04T10:23:25;97812.72;;;6.05;68.91
38912;BME280;28444;48.056;14.408;2023-03-04T10:25:52;97815.16;;;6.29;68.58
38912;BME280;28444;48.056;14.408;2023-03-04T10:28:28;97821.38;;;6.50;68.57
38912;BME280;28444;48.056;14.408;2023-03-04T10:34:09;97812.22;;;6.40;66.49
38912;BME280;28444;48.056;14.408;2023-03-04T10:36:46;97798.00;;;6.34;67.05
38912;BME280;28444;48.056;14.408;2023-03-04T10:42:01;97803.09;;;6.51;65.77
38912;BME280;28444;48.056;14.408;2023-03-04T10:44:29;97808.38;;;6.36;65.50
38912;BME280;28444;48.056;14.408;2023-03-04T10:46:57;97805.09;;;6.37;66.18
38912;BME280;28444;48.056;14.408;2023-03-04T10:49:24;97807.19;;;6.44;65.47
38912;BME280;28444;48.056;14.408;2023-03-04T10:52:26;97796.75;;;6.35;64.79
38912;BME280;28444;48.056;14.408;2023-03-04T10:54:59;97801.34;;;6.40;64.39
38912;BME280;28444;48.056;14.408;2023-03-04T10:57:36;97795.91;;;6.40;64.20
38912;BME280;28444;48.056;14.408;2023-03-04T11:00:30;97797.53;;;6.09;65.13
38912;BME280;28444;48.056;14.408;2023-03-04T11:03:32;97790.59;;;6.00;66.82
38912;BME280;28444;48.056;14.408;2023-03-04T11:06:22;97794.34;;;6.32;66.27
38912;BME280;28444;48.056;14.408;2023-03-04T11:08:54;97792.31;;;6.45;67.50
38912;BME280;28444;48.056;14.408;2023-03-04T11:11:24;97791.56;;;6.58;65.64
38912;BME280;28444;48.056;14.408;2023-03-04T11:13:54;97792.34;;;6.66;64.59
38912;BME280;28444;48.056;14.408;2023-03-04T11:16:28;97782.78;;;6.52;64.77
38912;BME280;28444;48.056;14.408;2023-03-04T11:19:01;97781.19;;;6.57;64.89
38912;BME280;28444;48.056;14.408;2023-03-04T11:21:33;97779.69;;;6.48;64.79
38912;BME280;28444;48.056;14.408;2023-03-04T11:27:12;97773.31;;;6.66;64.15
38912;BME280;28444;48.056;14.408;2023-03-04T11:29:41;97765.38;;;6.68;63.53
38912;BME280;28444;48.056;14.408;2023-03-04T11:32:14;97767.91;;;6.66;63.46
38912;BME280;28444;48.056;14.408;2023-03-04T11:34:53;97764.84;;;6.49;64.08
38912;BME280;28444;48.056;14.408;2023-03-04T11:37:38;97754.25;;;6.59;63.90
38912;BME280;28444;48.056;14.408;2023-03-04T11:40:40;97760.47;;;6.67;64.65
38912;BME280;28444;48.056;14.408;2023-03-04T11:43:16;97752.59;;;6.77;65.09
38912;BME280;28444;48.056;14.408;2023-03-04T11:52:07;97740.28;;;7.04;64.31
38912;BME280;28444;48.056;14.408;2023-03-04T11:58:44;97724.63;;;7.26;62.51
38912;BME280;28444;48.056;14.408;2023-03-04T12:12:31;97698.38;;;7.72;61.14
38912;BME280;28444;48.056;14.408;2023-03-04T12:15:27;97695.66;;;7.80;60.55
38912;BME280;28444;48.056;14.408;2023-03-04T12:18:15;97697.16;;;7.88;61.31
38912;BME280;28444;48.056;14.408;2023-03-04T12:26:49;97677.72;;;7.84;61.69
38912;BME280;28444;48.056;14.408;2023-03-04T12:32:35;97676.50;;;8.01;60.80
38912;BME280;28444;48.056;14.408;2023-03-04T12:47:12;97654.38;;;8.35;58.85
38912;BME280;28444;48.056;14.408;2023-03-04T12:49:53;97644.78;;;8.41;58.82
38912;BME280;28444;48.056;14.408;2023-03-04T12:55:16;97641.50;;;8.35;57.59
38912;BME280;28444;48.056;14.408;2023-03-04T12:57:45;97639.28;;;8.34;58.64
38912;BME280;28444;48.056;14.408;2023-03-04T13:01:08;97635.69;;;8.47;58.47
38912;BME280;28444;48.056;14.408;2023-03-04T13:09:49;97619.50;;;8.64;58.17
38912;BME280;28444;48.056;14.408;2023-03-04T13:11:54;97618.78;;;8.79;55.46
38912;BME280;28444;48.056;14.408;2023-03-04T13:14:29;97612.72;;;8.96;55.25
38912;BME280;28444;48.056;14.408;2023-03-04T13:17:38;97613.03;;;9.07;56.12
38912;BME280;28444;48.056;14.408;2023-03-04T13:20:38;97612.13;;;9.12;55.68
38912;BME280;28444;48.056;14.408;2023-03-04T13:25:39;97608.84;;;9.14;55.51
38912;BME280;28444;48.056;14.408;2023-03-04T13:35:57;97600.00;;;9.38;56.33
38912;BME280;28444;48.056;14.408;2023-03-04T13:38:36;97601.47;;;9.39;56.22
38912;BME280;28444;48.056;14.408;2023-03-04T13:43:52;97600.44;;;9.27;57.24
38912;BME280;28444;48.056;14.408;2023-03-04T13:46:38;97591.56;;;9.19;56.69
38912;BME280;28444;48.056;14.408;2023-03-04T13:49:07;97578.66;;;9.12;57.43
38912;BME280;28444;48.056;14.408;2023-03-04T13:51:42;97578.91;;;8.91;56.86
38912;BME280;28444;48.056;14.408;2023-03-04T13:54:26;97578.72;;;8.89;57.54
38912;BME280;28444;48.056;14.408;2023-03-04T13:57:17;97583.19;;;8.46;58.46
38912;BME280;28444;48.056;14.408;2023-03-04T13:59:52;97577.00;;;8.30;57.87
38912;BME280;28444;48.056;14.408;2023-03-04T14:02:22;97571.56;;;8.23;58.00
38912;BME280;28444;48.056;14.408;2023-03-04T14:04:58;97567.91;;;8.28;58.73
38912;BME280;28444;48.056;14.408;2023-03-04T14:07:35;97560.09;;;8.16;59.42
38912;BME280;28444;48.056;14.408;2023-03-04T14:12:44;97558.66;;;8.08;58.77
38912;BME280;28444;48.056;14.408;2023-03-04T14:17:39;97561.75;;;7.96;59.29
38912;BME280;28444;48.056;14.408;2023-03-04T14:20:38;97557.38;;;7.93;59.16
38912;BME280;28444;48.056;14.408;2023-03-04T14:23:30;97551.22;;;8.01;59.11
38912;BME280;28444;48.056;14.408;2023-03-04T14:26:12;97553.94;;;7.93;59.38
38912;BME280;28444;48.056;14.408;2023-03-04T14:28:50;97551.38;;;7.87;60.07
38912;BME280;28444;48.056;14.408;2023-03-04T14:31:20;97548.31;;;7.91;61.18
38912;BME280;28444;48.056;14.408;2023-03-04T14:33:51;97543.56;;;7.84;60.16
38912;BME280;28444;48.056;14.408;2023-03-04T14:36:21;97544.50;;;7.86;60.31
38912;BME280;28444;48.056;14.408;2023-03-04T14:38:52;97544.84;;;7.90;60.40
38912;BME280;28444;48.056;14.408;2023-03-04T14:41:34;97536.31;;;7.94;59.76
38912;BME280;28444;48.056;14.408;2023-03-04T14:44:10;97537.97;;;7.97;59.85
38912;BME280;28444;48.056;14.408;2023-03-04T14:46:44;97534.16;;;7.92;60.55